sensor_id;sensor_type;location;lat;lon;timestamp;P1;durP1;ratioP1;P2;durP2;ratioP2
30000;SDS011;16845;48.670;9.000;2023-04-09T00:01:53;28.67;;;21.35;;
30000;SDS011;16845;48.670;9.000;2023-04-09T00:04:21;26.85;;;20.08;;
30000;SDS011;16845;48.670;9.000;2023-04-09T00:06:49;26.13;;;19.42;;
30000;SDS011;16845;48.670;9.000;2023-04-09T00:09:17;30.80;;;21.40;;
30000;SDS011;16845;48.670;9.000;2023-04-09T00:11:46;29.20;;;20.25;;
30000;SDS011;16845;48.670;9.000;2023-04-09T00:14:15;32.40;;;21.02;;
30000;SDS011;16845;48.670;9.000;2023-04-09T00:16:43;27.27;;;19.45;;
30000;SDS011;16845;48.670;9.000;2023-04-09T00:19:11;24.45;;;19.55;;
30000;SDS011;16845;48.670;9.000;2023-04-09T00:21:39;29.75;;;21.08;;
30000;SDS011;16845;48.670;9.000;2023-04-09T00:24:07;25.98;;;19.75;;
30000;SDS011;16845;48.670;9.000;2023-04-09T00:26:35;30.85;;;23.08;;
30000;SDS011;16845;48.670;9.000;2023-04-09T00:29:03;29.00;;;21.27;;
30000;SDS011;16845;48.670;9.000;2023-04-09T00:31:32;28.95;;;20.83;;
30000;SDS011;16845;48.670;9.000;2023-04-09T00:34:00;27.42;;;19.52;;
30000;SDS011;16845;48.670;9.000;2023-04-09T00:36:28;26.17;;;20.73;;
30000;SDS011;16845;48.670;9.000;2023-04-09T00:38:56;27.75;;;21.45;;
30000;SDS011;16845;48.670;9.000;2023-04-09T00:41:24;31.85;;;21.73;;
30000;SDS011;16845;48.670;9.000;2023-04-09T00:43:54;28.55;;;22.42;;
30000;SDS011;16845;48.670;9.000;2023-04-09T00:46:22;28.60;;;22.25;;
30000;SDS011;16845;48.670;9.000;2023-04-09T00:48:51;30.67;;;22.05;;
30000;SDS011;16845;48.670;9.000;2023-04-09T00:51:20;28.88;;;19.92;;
30000;SDS011;16845;48.670;9.000;2023-04-09T00:53:48;33.15;;;20.35;;
30000;SDS011;16845;48.670;9.000;2023-04-09T00:56:16;26.90;;;19.85;;
30000;SDS011;16845;48.670;9.000;2023-04-09T00:58:46;29.73;;;21.23;;
30000;SDS011;16845;48.670;9.000;2023-04-09T01:01:15;32.65;;;21.55;;
30000;SDS011;16845;48.670;9.000;2023-04-09T01:03:43;30.23;;;21.98;;
30000;SDS011;16845;48.670;9.000;2023-04-09T01:06:14;27.70;;;21.10;;
30000;SDS011;16845;48.670;9.000;2023-04-09T01:08:50;30.13;;;22.60;;
30000;SDS011;16845;48.670;9.000;2023-04-09T01:11:27;27.45;;;20.15;;
30000;SDS011;16845;48.670;9.000;2023-04-09T01:14:04;31.23;;;21.70;;
30000;SDS011;16845;48.670;9.000;2023-04-09T01:16:39;34.80;;;23.25;;
30000;SDS011;16845;48.670;9.000;2023-04-09T01:19:14;30.13;;;21.75;;
30000;SDS011;16845;48.670;9.000;2023-04-09T01:21:52;28.40;;;21.38;;
30000;SDS011;16845;48.670;9.000;2023-04-09T01:24:26;31.05;;;21.17;;
30000;SDS011;16845;48.670;9.000;2023-04-09T01:27:06;30.77;;;21.90;;
30000;SDS011;16845;48.670;9.000;2023-04-09T01:29:38;32.00;;;21.67;;
30000;SDS011;16845;48.670;9.000;2023-04-09T01:32:11;26.88;;;20.70;;
30000;SDS011;16845;48.670;9.000;2023-04-09T01:34:43;30.65;;;21.25;;
30000;SDS011;16845;48.670;9.000;2023-04-09T01:37:12;27.38;;;21.33;;
30000;SDS011;16845;48.670;9.000;2023-04-09T01:39:41;29.05;;;21.45;;
30000;SDS011;16845;48.670;9.000;2023-04-09T01:42:10;28.55;;;21.52;;
30000;SDS011;16845;48.670;9.000;2023-04-09T01:44:40;28.05;;;21.27;;
30000;SDS011;16845;48.670;9.000;2023-04-09T01:47:11;29.55;;;21.63;;
30000;SDS011;16845;48.670;9.000;2023-04-09T01:49:39;32.92;;;23.45;;
30000;SDS011;16845;48.670;9.000;2023-04-09T01:52:08;30.65;;;21.95;;
30000;SDS011;16845;48.670;9.000;2023-04-09T01:54:36;32.70;;;23.60;;
30000;SDS011;16845;48.670;9.000;2023-04-09T01:57:04;28.17;;;21.80;;
30000;SDS011;16845;48.670;9.000;2023-04-09T01:59:32;35.92;;;24.60;;
30000;SDS011;16845;48.670;9.000;2023-04-09T02:02:03;28.23;;;21.50;;
30000;SDS011;16845;48.670;9.000;2023-04-09T02:04:38;35.08;;;21.80;;
30000;SDS011;16845;48.670;9.000;2023-04-09T02:07:09;33.45;;;22.83;;
30000;SDS011;16845;48.670;9.000;2023-04-09T02:09:42;29.25;;;22.35;;
30000;SDS011;16845;48.670;9.000;2023-04-09T02:12:15;29.38;;;21.92;;
30000;SDS011;16845;48.670;9.000;2023-04-09T02:14:45;30.48;;;21.63;;
30000;SDS011;16845;48.670;9.000;2023-04-09T02:17:15;35.08;;;21.58;;
30000;SDS011;16845;48.670;9.000;2023-04-09T02:19:44;28.02;;;20.27;;
30000;SDS011;16845;48.670;9.000;2023-04-09T02:22:13;26.98;;;19.95;;
30000;SDS011;16845;48.670;9.000;2023-04-09T02:24:42;29.23;;;20.50;;
30000;SDS011;16845;48.670;9.000;2023-04-09T02:27:10;27.83;;;21.13;;
30000;SDS011;16845;48.670;9.000;2023-04-09T02:29:38;30.95;;;20.90;;
30000;SDS011;16845;48.670;9.000;2023-04-09T02:32:06;29.92;;;20.38;;
30000;SDS011;16845;48.670;9.000;2023-04-09T02:34:35;30.38;;;22.23;;
30000;SDS011;16845;48.670;9.000;2023-04-09T02:37:03;32.92;;;23.33;;
30000;SDS011;16845;48.670;9.000;2023-04-09T02:39:31;32.90;;;22.95;;
30000;SDS011;16845;48.670;9.000;2023-04-09T02:41:59;34.70;;;22.50;;
30000;SDS011;16845;48.670;9.000;2023-04-09T02:44:27;29.77;;;22.83;;
30000;SDS011;16845;48.670;9.000;2023-04-09T02:46:55;34.03;;;23.98;;
30000;SDS011;16845;48.670;9.000;2023-04-09T02:49:23;33.47;;;23.58;;
30000;SDS011;16845;48.670;9.000;2023-04-09T02:51:52;30.92;;;22.88;;
30000;SDS011;16845;48.670;9.000;2023-04-09T02:54:20;31.45;;;23.25;;
30000;SDS011;16845;48.670;9.000;2023-04-09T02:56:48;30.75;;;22.55;;
30000;SDS011;16845;48.670;9.000;2023-04-09T02:59:16;35.03;;;23.13;;
30000;SDS011;16845;48.670;9.000;2023-04-09T03:01:44;33.30;;;22.73;;
30000;SDS011;16845;48.670;9.000;2023-04-09T03:04:12;30.45;;;22.60;;
30000;SDS011;16845;48.670;9.000;2023-04-09T03:06:40;32.03;;;23.55;;
30000;SDS011;16845;48.670;9.000;2023-04-09T03:09:09;36.28;;;24.05;;
30000;SDS011;16845;48.670;9.000;2023-04-09T03:11:37;32.08;;;23.33;;
30000;SDS011;16845;48.670;9.000;2023-04-09T03:14:05;33.25;;;24.30;;
30000;SDS011;16845;48.670;9.000;2023-04-09T03:16:33;33.65;;;23.70;;
30000;SDS011;16845;48.670;9.000;2023-04-09T03:19:00;32.88;;;22.30;;
30000;SDS011;16845;48.670;9.000;2023-04-09T03:21:28;33.38;;;22.15;;
30000;SDS011;16845;48.670;9.000;2023-04-09T03:23:57;32.85;;;22.95;;
30000;SDS011;16845;48.670;9.000;2023-04-09T03:26:26;34.38;;;23.73;;
30000;SDS011;16845;48.670;9.000;2023-04-09T03:28:54;35.78;;;24.95;;
30000;SDS011;16845;48.670;9.000;2023-04-09T03:31:22;34.55;;;24.60;;
30000;SDS011;16845;48.670;9.000;2023-04-09T03:33:50;31.40;;;22.98;;
30000;SDS011;16845;48.670;9.000;2023-04-09T03:36:17;32.35;;;22.90;;
30000;SDS011;16845;48.670;9.000;2023-04-09T03:38:45;29.77;;;22.48;;
30000;SDS011;16845;48.670;9.000;2023-04-09T03:41:13;36.67;;;26.42;;
30000;SDS011;16845;48.670;9.000;2023-04-09T03:43:43;40.03;;;22.45;;
30000;SDS011;16845;48.670;9.000;2023-04-09T03:46:11;31.13;;;22.58;;
30000;SDS011;16845;48.670;9.000;2023-04-09T03:48:39;35.15;;;24.33;;
30000;SDS011;16845;48.670;9.000;2023-04-09T03:51:10;33.40;;;23.88;;
30000;SDS011;16845;48.670;9.000;2023-04-09T03:53:38;34.85;;;24.48;;
30000;SDS011;16845;48.670;9.000;2023-04-09T03:56:06;34.70;;;24.38;;
30000;SDS011;16845;48.670;9.000;2023-04-09T03:58:34;32.75;;;23.75;;
30000;SDS011;16845;48.670;9.000;2023-04-09T04:01:04;36.13;;;26.00;;
30000;SDS011;16845;48.670;9.000;2023-04-09T04:03:32;34.92;;;24.50;;
30000;SDS011;16845;48.670;9.000;2023-04-09T04:06:00;40.88;;;25.73;;
30000;SDS011;16845;48.670;9.000;2023-04-09T04:08:29;40.58;;;26.88;;
30000;SDS011;16845;48.670;9.000;2023-04-09T04:11:01;36.50;;;25.60;;
30000;SDS011;16845;48.670;9.000;2023-04-09T04:13:30;34.80;;;24.73;;
30000;SDS011;16845;48.670;9.000;2023-04-09T04:15:58;39.15;;;25.00;;
30000;SDS011;16845;48.670;9.000;2023-04-09T04:18:28;44.80;;;26.33;;
30000;SDS011;16845;48.670;9.000;2023-04-09T04:20:56;37.95;;;26.83;;
30000;SDS011;16845;48.670;9.000;2023-04-09T04:23:23;41.53;;;27.80;;
30000;SDS011;16845;48.670;9.000;2023-04-09T04:25:51;39.72;;;28.38;;
30000;SDS011;16845;48.670;9.000;2023-04-09T04:28:19;41.00;;;27.48;;
30000;SDS011;16845;48.670;9.000;2023-04-09T04:30:47;40.42;;;27.83;;
30000;SDS011;16845;48.670;9.000;2023-04-09T04:33:15;39.67;;;26.42;;
30000;SDS011;16845;48.670;9.000;2023-04-09T04:35:44;35.17;;;26.05;;
30000;SDS011;16845;48.670;9.000;2023-04-09T04:38:12;39.30;;;25.90;;
30000;SDS011;16845;48.670;9.000;2023-04-09T04:40:40;36.95;;;25.80;;
30000;SDS011;16845;48.670;9.000;2023-04-09T04:43:08;37.30;;;25.58;;
30000;SDS011;16845;48.670;9.000;2023-04-09T04:45:36;34.08;;;24.60;;
30000;SDS011;16845;48.670;9.000;2023-04-09T04:48:04;34.38;;;24.60;;
30000;SDS011;16845;48.670;9.000;2023-04-09T04:50:32;35.08;;;24.88;;
30000;SDS011;16845;48.670;9.000;2023-04-09T04:53:01;39.95;;;26.00;;
30000;SDS011;16845;48.670;9.000;2023-04-09T04:55:29;38.53;;;26.60;;
30000;SDS011;16845;48.670;9.000;2023-04-09T04:57:57;35.95;;;24.83;;
30000;SDS011;16845;48.670;9.000;2023-04-09T05:00:25;32.70;;;24.65;;
30000;SDS011;16845;48.670;9.000;2023-04-09T05:02:53;41.38;;;27.52;;
30000;SDS011;16845;48.670;9.000;2023-04-09T05:05:21;36.20;;;25.75;;
30000;SDS011;16845;48.670;9.000;2023-04-09T05:07:49;38.10;;;25.27;;
30000;SDS011;16845;48.670;9.000;2023-04-09T05:10:18;37.00;;;25.80;;
30000;SDS011;16845;48.670;9.000;2023-04-09T05:12:47;36.30;;;25.48;;
30000;SDS011;16845;48.670;9.000;2023-04-09T05:15:14;39.80;;;26.92;;
30000;SDS011;16845;48.670;9.000;2023-04-09T05:17:43;39.08;;;26.55;;
30000;SDS011;16845;48.670;9.000;2023-04-09T05:20:12;38.22;;;26.50;;
30000;SDS011;16845;48.670;9.000;2023-04-09T05:22:40;34.28;;;23.83;;
30000;SDS011;16845;48.670;9.000;2023-04-09T05:25:08;36.97;;;26.15;;
30000;SDS011;16845;48.670;9.000;2023-04-09T05:27:37;39.35;;;26.60;;
30000;SDS011;16845;48.670;9.000;2023-04-09T05:30:06;32.72;;;23.45;;
30000;SDS011;16845;48.670;9.000;2023-04-09T05:32:34;38.10;;;24.92;;
30000;SDS011;16845;48.670;9.000;2023-04-09T05:35:03;35.72;;;25.38;;
30000;SDS011;16845;48.670;9.000;2023-04-09T05:37:31;44.47;;;27.48;;
30000;SDS011;16845;48.670;9.000;2023-04-09T05:39:59;37.67;;;26.02;;
30000;SDS011;16845;48.670;9.000;2023-04-09T05:42:27;35.88;;;24.73;;
30000;SDS011;16845;48.670;9.000;2023-04-09T05:44:56;36.20;;;25.08;;
30000;SDS011;16845;48.670;9.000;2023-04-09T05:47:24;37.78;;;24.88;;
30000;SDS011;16845;48.670;9.000;2023-04-09T05:49:52;41.15;;;28.38;;
30000;SDS011;16845;48.670;9.000;2023-04-09T05:52:20;37.50;;;26.42;;
30000;SDS011;16845;48.670;9.000;2023-04-09T05:54:48;36.22;;;25.65;;
30000;SDS011;16845;48.670;9.000;2023-04-09T05:57:15;34.50;;;24.33;;
30000;SDS011;16845;48.670;9.000;2023-04-09T05:59:43;27.42;;;20.65;;
30000;SDS011;16845;48.670;9.000;2023-04-09T06:02:13;31.65;;;23.27;;
30000;SDS011;16845;48.670;9.000;2023-04-09T06:04:41;31.90;;;23.45;;
30000;SDS011;16845;48.670;9.000;2023-04-09T06:07:09;34.50;;;23.08;;
30000;SDS011;16845;48.670;9.000;2023-04-09T06:09:37;34.40;;;24.23;;
30000;SDS011;16845;48.670;9.000;2023-04-09T06:12:05;31.80;;;23.27;;
30000;SDS011;16845;48.670;9.000;2023-04-09T06:14:32;32.53;;;24.10;;
30000;SDS011;16845;48.670;9.000;2023-04-09T06:17:00;34.25;;;23.60;;
30000;SDS011;16845;48.670;9.000;2023-04-09T06:19:30;33.50;;;23.73;;
30000;SDS011;16845;48.670;9.000;2023-04-09T06:21:57;31.50;;;23.75;;
30000;SDS011;16845;48.670;9.000;2023-04-09T06:24:25;33.42;;;23.38;;
30000;SDS011;16845;48.670;9.000;2023-04-09T06:26:53;28.80;;;20.88;;
30000;SDS011;16845;48.670;9.000;2023-04-09T06:29:21;26.75;;;20.23;;
30000;SDS011;16845;48.670;9.000;2023-04-09T06:31:49;31.98;;;20.33;;
30000;SDS011;16845;48.670;9.000;2023-04-09T06:34:17;26.88;;;19.80;;
30000;SDS011;16845;48.670;9.000;2023-04-09T06:36:47;27.50;;;19.45;;
30000;SDS011;16845;48.670;9.000;2023-04-09T06:39:14;30.08;;;20.27;;
30000;SDS011;16845;48.670;9.000;2023-04-09T06:41:42;27.33;;;21.25;;
30000;SDS011;16845;48.670;9.000;2023-04-09T06:44:11;26.40;;;19.08;;
30000;SDS011;16845;48.670;9.000;2023-04-09T06:46:39;27.13;;;20.02;;
30000;SDS011;16845;48.670;9.000;2023-04-09T06:49:07;30.08;;;20.20;;
30000;SDS011;16845;48.670;9.000;2023-04-09T06:51:35;22.30;;;17.48;;
30000;SDS011;16845;48.670;9.000;2023-04-09T06:54:04;26.83;;;18.70;;
30000;SDS011;16845;48.670;9.000;2023-04-09T06:56:32;25.10;;;18.33;;
30000;SDS011;16845;48.670;9.000;2023-04-09T06:59:00;23.25;;;18.83;;
30000;SDS011;16845;48.670;9.000;2023-04-09T07:01:28;21.25;;;16.75;;
30000;SDS011;16845;48.670;9.000;2023-04-09T07:03:56;22.70;;;16.50;;
30000;SDS011;16845;48.670;9.000;2023-04-09T07:06:24;21.25;;;15.52;;
30000;SDS011;16845;48.670;9.000;2023-04-09T07:08:52;21.80;;;16.23;;
30000;SDS011;16845;48.670;9.000;2023-04-09T07:11:22;21.27;;;16.65;;
30000;SDS011;16845;48.670;9.000;2023-04-09T07:13:50;20.20;;;15.93;;
30000;SDS011;16845;48.670;9.000;2023-04-09T07:16:19;20.42;;;15.43;;
30000;SDS011;16845;48.670;9.000;2023-04-09T07:18:47;20.45;;;15.63;;
30000;SDS011;16845;48.670;9.000;2023-04-09T07:21:15;19.90;;;15.57;;
30000;SDS011;16845;48.670;9.000;2023-04-09T07:23:43;17.48;;;14.63;;
30000;SDS011;16845;48.670;9.000;2023-04-09T07:26:11;18.30;;;14.07;;
30000;SDS011;16845;48.670;9.000;2023-04-09T07:28:41;17.48;;;14.23;;
30000;SDS011;16845;48.670;9.000;2023-04-09T07:31:09;19.33;;;14.73;;
30000;SDS011;16845;48.670;9.000;2023-04-09T07:33:38;19.60;;;15.52;;
30000;SDS011;16845;48.670;9.000;2023-04-09T07:36:05;19.40;;;14.57;;
30000;SDS011;16845;48.670;9.000;2023-04-09T07:38:33;16.90;;;13.45;;
30000;SDS011;16845;48.670;9.000;2023-04-09T07:41:01;17.35;;;12.13;;
30000;SDS011;16845;48.670;9.000;2023-04-09T07:43:29;13.95;;;10.57;;
30000;SDS011;16845;48.670;9.000;2023-04-09T07:45:59;16.17;;;12.68;;
30000;SDS011;16845;48.670;9.000;2023-04-09T07:48:27;12.25;;;10.38;;
30000;SDS011;16845;48.670;9.000;2023-04-09T07:50:55;12.98;;;10.70;;
30000;SDS011;16845;48.670;9.000;2023-04-09T07:53:23;13.50;;;10.70;;
30000;SDS011;16845;48.670;9.000;2023-04-09T07:55:51;14.85;;;11.13;;
30000;SDS011;16845;48.670;9.000;2023-04-09T07:58:19;14.10;;;10.45;;
30000;SDS011;16845;48.670;9.000;2023-04-09T08:00:46;16.88;;;10.85;;
30000;SDS011;16845;48.670;9.000;2023-04-09T08:03:16;13.93;;;11.20;;
30000;SDS011;16845;48.670;9.000;2023-04-09T08:05:44;10.80;;;8.35;;
30000;SDS011;16845;48.670;9.000;2023-04-09T08:08:12;7.50;;;6.57;;
30000;SDS011;16845;48.670;9.000;2023-04-09T08:10:40;9.63;;;7.60;;
30000;SDS011;16845;48.670;9.000;2023-04-09T08:13:08;8.75;;;7.00;;
30000;SDS011;16845;48.670;9.000;2023-04-09T08:15:37;6.03;;;5.43;;
30000;SDS011;16845;48.670;9.000;2023-04-09T08:18:05;6.82;;;5.75;;
30000;SDS011;16845;48.670;9.000;2023-04-09T08:20:34;6.63;;;5.60;;
30000;SDS011;16845;48.670;9.000;2023-04-09T08:23:02;7.55;;;6.00;;
30000;SDS011;16845;48.670;9.000;2023-04-09T08:25:30;8.52;;;7.40;;
30000;SDS011;16845;48.670;9.000;2023-04-09T08:27:57;7.30;;;6.07;;
30000;SDS011;16845;48.670;9.000;2023-04-09T08:30:25;6.95;;;5.85;;
30000;SDS011;16845;48.670;9.000;2023-04-09T08:32:53;7.47;;;6.68;;
30000;SDS011;16845;48.670;9.000;2023-04-09T08:35:22;7.93;;;7.07;;
30000;SDS011;16845;48.670;9.000;2023-04-09T08:37:52;7.93;;;6.80;;
30000;SDS011;16845;48.670;9.000;2023-04-09T08:40:20;9.25;;;7.53;;
30000;SDS011;16845;48.670;9.000;2023-04-09T08:42:50;8.52;;;7.35;;
30000;SDS011;16845;48.670;9.000;2023-04-09T08:45:20;5.15;;;4.65;;
30000;SDS011;16845;48.670;9.000;2023-04-09T08:47:49;3.05;;;2.80;;
30000;SDS011;16845;48.670;9.000;2023-04-09T08:50:18;3.83;;;3.25;;
30000;SDS011;16845;48.670;9.000;2023-04-09T08:52:46;4.20;;;2.90;;
30000;SDS011;16845;48.670;9.000;2023-04-09T08:55:16;3.72;;;3.03;;
30000;SDS011;16845;48.670;9.000;2023-04-09T08:57:44;5.28;;;3.92;;
30000;SDS011;16845;48.670;9.000;2023-04-09T09:00:12;6.13;;;4.97;;
30000;SDS011;16845;48.670;9.000;2023-04-09T09:05:37;6.05;;;4.43;;
30000;SDS011;16845;48.670;9.000;2023-04-09T09:08:06;5.85;;;5.07;;
30000;SDS011;16845;48.670;9.000;2023-04-09T09:10:37;5.40;;;4.90;;
30000;SDS011;16845;48.670;9.000;2023-04-09T09:13:15;5.95;;;5.20;;
30000;SDS011;16845;48.670;9.000;2023-04-09T09:15:44;7.85;;;6.57;;
30000;SDS011;16845;48.670;9.000;2023-04-09T09:18:15;6.20;;;5.38;;
30000;SDS011;16845;48.670;9.000;2023-04-09T09:20:44;5.60;;;4.70;;
30000;SDS011;16845;48.670;9.000;2023-04-09T09:23:12;5.68;;;5.07;;
30000;SDS011;16845;48.670;9.000;2023-04-09T09:25:42;6.15;;;5.55;;
30000;SDS011;16845;48.670;9.000;2023-04-09T09:28:10;8.40;;;6.60;;
30000;SDS011;16845;48.670;9.000;2023-04-09T09:30:39;10.63;;;6.82;;
30000;SDS011;16845;48.670;9.000;2023-04-09T09:33:07;8.50;;;7.20;;
30000;SDS011;16845;48.670;9.000;2023-04-09T09:38:23;8.55;;;7.03;;
30000;SDS011;16845;48.670;9.000;2023-04-09T09:40:52;10.52;;;8.95;;
30000;SDS011;16845;48.670;9.000;2023-04-09T09:43:20;9.82;;;8.43;;
30000;SDS011;16845;48.670;9.000;2023-04-09T09:45:48;10.40;;;8.45;;
30000;SDS011;16845;48.670;9.000;2023-04-09T09:48:16;9.40;;;7.35;;
30000;SDS011;16845;48.670;9.000;2023-04-09T09:50:44;9.00;;;6.38;;
30000;SDS011;16845;48.670;9.000;2023-04-09T09:53:14;8.02;;;5.65;;
30000;SDS011;16845;48.670;9.000;2023-04-09T09:55:47;7.47;;;6.03;;
30000;SDS011;16845;48.670;9.000;2023-04-09T09:58:22;8.65;;;6.88;;
30000;SDS011;16845;48.670;9.000;2023-04-09T10:00:54;8.07;;;6.70;;
30000;SDS011;16845;48.670;9.000;2023-04-09T10:03:24;7.10;;;5.82;;
30000;SDS011;16845;48.670;9.000;2023-04-09T10:05:53;8.13;;;6.28;;
30000;SDS011;16845;48.670;9.000;2023-04-09T10:08:22;6.38;;;5.68;;
30000;SDS011;16845;48.670;9.000;2023-04-09T10:10:50;7.20;;;5.93;;
30000;SDS011;16845;48.670;9.000;2023-04-09T10:13:20;8.52;;;7.18;;
30000;SDS011;16845;48.670;9.000;2023-04-09T10:15:57;8.30;;;7.10;;
30000;SDS011;16845;48.670;9.000;2023-04-09T10:18:26;7.93;;;6.28;;
30000;SDS011;16845;48.670;9.000;2023-04-09T10:20:55;8.23;;;6.10;;
30000;SDS011;16845;48.670;9.000;2023-04-09T10:23:29;6.32;;;5.57;;
30000;SDS011;16845;48.670;9.000;2023-04-09T10:26:00;6.35;;;5.72;;
30000;SDS011;16845;48.670;9.000;2023-04-09T10:28:29;8.25;;;6.68;;
30000;SDS011;16845;48.670;9.000;2023-04-09T10:30:57;8.82;;;6.68;;
30000;SDS011;16845;48.670;9.000;2023-04-09T10:33:26;6.75;;;5.72;;
30000;SDS011;16845;48.670;9.000;2023-04-09T10:35:58;7.85;;;6.63;;
30000;SDS011;16845;48.670;9.000;2023-04-09T10:38:34;6.90;;;5.95;;
30000;SDS011;16845;48.670;9.000;2023-04-09T10:41:11;6.43;;;5.53;;
30000;SDS011;16845;48.670;9.000;2023-04-09T10:43:44;6.63;;;5.45;;
30000;SDS011;16845;48.670;9.000;2023-04-09T10:46:27;7.20;;;6.07;;
30000;SDS011;16845;48.670;9.000;2023-04-09T10:49:11;8.20;;;6.57;;
30000;SDS011;16845;48.670;9.000;2023-04-09T10:51:52;11.00;;;7.32;;
30000;SDS011;16845;48.670;9.000;2023-04-09T10:54:37;8.10;;;6.90;;
30000;SDS011;16845;48.670;9.000;2023-04-09T10:57:09;10.68;;;7.05;;
30000;SDS011;16845;48.670;9.000;2023-04-09T10:59:41;7.60;;;6.75;;
30000;SDS011;16845;48.670;9.000;2023-04-09T11:02:21;9.00;;;6.78;;
30000;SDS011;16845;48.670;9.000;2023-04-09T11:05:24;7.85;;;6.35;;
30000;SDS011;16845;48.670;9.000;2023-04-09T11:07:56;7.75;;;6.32;;
30000;SDS011;16845;48.670;9.000;2023-04-09T11:10:30;8.40;;;7.10;;
30000;SDS011;16845;48.670;9.000;2023-04-09T11:12:59;9.07;;;7.15;;
30000;SDS011;16845;48.670;9.000;2023-04-09T11:15:29;8.68;;;6.38;;
30000;SDS011;16845;48.670;9.000;2023-04-09T11:17:58;7.13;;;6.40;;
30000;SDS011;16845;48.670;9.000;2023-04-09T11:20:27;9.23;;;7.25;;
30000;SDS011;16845;48.670;9.000;2023-04-09T11:22:56;6.68;;;5.68;;
30000;SDS011;16845;48.670;9.000;2023-04-09T11:25:26;4.57;;;3.97;;
30000;SDS011;16845;48.670;9.000;2023-04-09T11:27:55;6.72;;;4.70;;
30000;SDS011;16845;48.670;9.000;2023-04-09T11:30:24;5.18;;;4.53;;
30000;SDS011;16845;48.670;9.000;2023-04-09T11:32:53;6.72;;;5.57;;
30000;SDS011;16845;48.670;9.000;2023-04-09T11:35:21;8.57;;;5.15;;
30000;SDS011;16845;48.670;9.000;2023-04-09T11:37:50;4.45;;;4.05;;
30000;SDS011;16845;48.670;9.000;2023-04-09T11:40:18;6.47;;;5.22;;
30000;SDS011;16845;48.670;9.000;2023-04-09T11:42:47;5.40;;;4.90;;
30000;SDS011;16845;48.670;9.000;2023-04-09T11:45:16;6.93;;;5.90;;
30000;SDS011;16845;48.670;9.000;2023-04-09T11:47:45;4.75;;;4.32;;
30000;SDS011;16845;48.670;9.000;2023-04-09T11:50:15;5.72;;;5.07;;
30000;SDS011;16845;48.670;9.000;2023-04-09T11:52:43;4.70;;;4.30;;
30000;SDS011;16845;48.670;9.000;2023-04-09T11:55:21;5.25;;;4.45;;
30000;SDS011;16845;48.670;9.000;2023-04-09T11:57:51;4.82;;;3.95;;
30000;SDS011;16845;48.670;9.000;2023-04-09T12:00:20;6.18;;;4.80;;
30000;SDS011;16845;48.670;9.000;2023-04-09T12:02:50;5.97;;;5.00;;
30000;SDS011;16845;48.670;9.000;2023-04-09T12:05:29;5.63;;;5.10;;
30000;SDS011;16845;48.670;9.000;2023-04-09T12:07:58;6.00;;;5.40;;
30000;SDS011;16845;48.670;9.000;2023-04-09T12:10:28;6.55;;;5.85;;
30000;SDS011;16845;48.670;9.000;2023-04-09T12:13:00;6.45;;;5.13;;
30000;SDS011;16845;48.670;9.000;2023-04-09T12:15:32;5.38;;;4.88;;
30000;SDS011;16845;48.670;9.000;2023-04-09T12:18:02;7.10;;;6.40;;
30000;SDS011;16845;48.670;9.000;2023-04-09T12:20:35;6.15;;;5.22;;
30000;SDS011;16845;48.670;9.000;2023-04-09T12:23:05;6.03;;;5.43;;
30000;SDS011;16845;48.670;9.000;2023-04-09T12:25:34;6.63;;;5.90;;
30000;SDS011;16845;48.670;9.000;2023-04-09T12:28:03;5.40;;;4.90;;
30000;SDS011;16845;48.670;9.000;2023-04-09T12:30:33;5.18;;;4.75;;
30000;SDS011;16845;48.670;9.000;2023-04-09T12:33:01;5.13;;;4.65;;
30000;SDS011;16845;48.670;9.000;2023-04-09T12:35:31;5.35;;;4.85;;
30000;SDS011;16845;48.670;9.000;2023-04-09T12:38:01;5.28;;;4.78;;
30000;SDS011;16845;48.670;9.000;2023-04-09T12:40:30;5.07;;;4.57;;
30000;SDS011;16845;48.670;9.000;2023-04-09T12:42:58;4.47;;;4.07;;
30000;SDS011;16845;48.670;9.000;2023-04-09T12:45:26;4.38;;;3.97;;
30000;SDS011;16845;48.670;9.000;2023-04-09T12:47:55;5.40;;;4.85;;
30000;SDS011;16845;48.670;9.000;2023-04-09T12:50:23;5.20;;;4.70;;
30000;SDS011;16845;48.670;9.000;2023-04-09T12:52:51;5.38;;;4.88;;
30000;SDS011;16845;48.670;9.000;2023-04-09T12:55:21;6.00;;;5.35;;
30000;SDS011;16845;48.670;9.000;2023-04-09T12:57:49;5.50;;;5.00;;
30000;SDS011;16845;48.670;9.000;2023-04-09T13:00:17;7.80;;;5.22;;
30000;SDS011;16845;48.670;9.000;2023-04-09T13:02:45;5.25;;;4.75;;
30000;SDS011;16845;48.670;9.000;2023-04-09T13:05:13;7.95;;;5.57;;
30000;SDS011;16845;48.670;9.000;2023-04-09T13:07:41;6.13;;;5.20;;
30000;SDS011;16845;48.670;9.000;2023-04-09T13:10:09;6.15;;;5.28;;
30000;SDS011;16845;48.670;9.000;2023-04-09T13:12:39;5.82;;;5.30;;
30000;SDS011;16845;48.670;9.000;2023-04-09T13:15:07;7.18;;;5.97;;
30000;SDS011;16845;48.670;9.000;2023-04-09T13:17:35;5.40;;;4.90;;
30000;SDS011;16845;48.670;9.000;2023-04-09T13:20:03;5.70;;;5.10;;
30000;SDS011;16845;48.670;9.000;2023-04-09T13:22:32;6.60;;;5.43;;
30000;SDS011;16845;48.670;9.000;2023-04-09T13:25:00;6.07;;;5.47;;
30000;SDS011;16845;48.670;9.000;2023-04-09T13:27:28;5.47;;;4.80;;
30000;SDS011;16845;48.670;9.000;2023-04-09T13:29:57;6.88;;;4.78;;
30000;SDS011;16845;48.670;9.000;2023-04-09T13:32:25;5.80;;;4.88;;
30000;SDS011;16845;48.670;9.000;2023-04-09T13:34:53;7.22;;;5.55;;
30000;SDS011;16845;48.670;9.000;2023-04-09T13:37:23;6.22;;;5.60;;
30000;SDS011;16845;48.670;9.000;2023-04-09T13:39:51;5.32;;;4.82;;
30000;SDS011;16845;48.670;9.000;2023-04-09T13:42:19;5.55;;;4.75;;
30000;SDS011;16845;48.670;9.000;2023-04-09T13:44:46;5.85;;;5.22;;
30000;SDS011;16845;48.670;9.000;2023-04-09T13:47:16;6.32;;;4.55;;
30000;SDS011;16845;48.670;9.000;2023-04-09T13:49:44;5.78;;;5.18;;
30000;SDS011;16845;48.670;9.000;2023-04-09T13:52:12;6.97;;;5.55;;
30000;SDS011;16845;48.670;9.000;2023-04-09T13:54:40;6.28;;;5.65;;
30000;SDS011;16845;48.670;9.000;2023-04-09T13:57:08;8.30;;;6.30;;
30000;SDS011;16845;48.670;9.000;2023-04-09T13:59:36;6.57;;;5.53;;
30000;SDS011;16845;48.670;9.000;2023-04-09T14:02:07;5.60;;;4.80;;
30000;SDS011;16845;48.670;9.000;2023-04-09T14:04:36;9.60;;;5.30;;
30000;SDS011;16845;48.670;9.000;2023-04-09T14:07:04;5.70;;;5.03;;
30000;SDS011;16845;48.670;9.000;2023-04-09T14:09:32;5.75;;;5.13;;
30000;SDS011;16845;48.670;9.000;2023-04-09T14:12:00;5.30;;;4.57;;
30000;SDS011;16845;48.670;9.000;2023-04-09T14:14:28;5.38;;;4.82;;
30000;SDS011;16845;48.670;9.000;2023-04-09T14:16:56;6.18;;;4.80;;
30000;SDS011;16845;48.670;9.000;2023-04-09T14:19:24;7.50;;;5.53;;
30000;SDS011;16845;48.670;9.000;2023-04-09T14:21:53;6.07;;;4.75;;
30000;SDS011;16845;48.670;9.000;2023-04-09T14:24:21;7.03;;;5.32;;
30000;SDS011;16845;48.670;9.000;2023-04-09T14:26:49;5.78;;;4.85;;
30000;SDS011;16845;48.670;9.000;2023-04-09T14:29:18;5.82;;;5.22;;
30000;SDS011;16845;48.670;9.000;2023-04-09T14:31:47;5.70;;;4.93;;
30000;SDS011;16845;48.670;9.000;2023-04-09T14:34:15;6.38;;;4.85;;
30000;SDS011;16845;48.670;9.000;2023-04-09T14:36:43;5.88;;;4.63;;
30000;SDS011;16845;48.670;9.000;2023-04-09T14:39:12;6.35;;;5.15;;
30000;SDS011;16845;48.670;9.000;2023-04-09T14:41:40;6.63;;;5.50;;
30000;SDS011;16845;48.670;9.000;2023-04-09T14:44:08;5.07;;;4.43;;
30000;SDS011;16845;48.670;9.000;2023-04-09T14:46:36;5.85;;;4.45;;
30000;SDS011;16845;48.670;9.000;2023-04-09T14:49:04;5.03;;;4.35;;
30000;SDS011;16845;48.670;9.000;2023-04-09T14:51:32;6.43;;;5.10;;